createdAt,value
2018-06-11T00:00:31.947Z,998.1
2018-06-11T00:01:32.666Z,998.1
2018-06-11T00:02:33.397Z,998.1
2018-06-11T00:03:34.119Z,998.1
2018-06-11T00:04:34.961Z,998.1
2018-06-11T00:05:35.677Z,998.1
2018-06-11T00:06:36.396Z,998.0
2018-06-11T00:07:37.114Z,997.9
2018-06-11T00:08:37.846Z,997.9
2018-06-11T00:09:38.881Z,997.9
2018-06-11T00:10:39.589Z,997.9
2018-06-11T00:11:40.318Z,997.9
2018-06-11T00:12:41.050Z,997.9
2018-06-11T00:13:41.762Z,997.9
2018-06-11T00:14:42.540Z,998.0
2018-06-11T00:15:43.259Z,998.0
2018-06-11T00:16:43.994Z,998.0
2018-06-11T00:17:44.716Z,998.1
2018-06-11T00:18:45.453Z,998.1
2018-06-11T00:19:46.514Z,998.1
2018-06-11T00:20:47.249Z,998.1
2018-06-11T00:21:48.235Z,998.1
2018-06-11T00:22:48.962Z,998.1
2018-06-11T00:23:49.683Z,998.0
2018-06-11T00:24:50.453Z,998.0
2018-06-11T00:25:51.188Z,998.0
2018-06-11T00:26:51.916Z,998.0
2018-06-11T00:27:52.635Z,998.0
2018-06-11T00:28:53.385Z,998.0
2018-06-11T00:29:54.089Z,998.0
2018-06-11T00:30:54.829Z,998.0
2018-06-11T00:31:55.548Z,998.0
2018-06-11T00:32:56.272Z,998.0
2018-06-11T00:33:57.002Z,998.0
2018-06-11T00:34:58.074Z,998.0
2018-06-11T00:35:58.799Z,998.0
2018-06-11T00:36:59.764Z,998.0
2018-06-11T00:38:00.496Z,997.9
2018-06-11T00:39:01.209Z,998.0
2018-06-11T00:40:01.979Z,998.0
2018-06-11T00:41:02.705Z,997.9
2018-06-11T00:42:03.432Z,998.0
2018-06-11T00:43:04.164Z,998.0
2018-06-11T00:44:04.891Z,998.0
2018-06-11T00:45:05.609Z,998.0
2018-06-11T00:46:06.337Z,997.9
2018-06-11T00:47:07.057Z,998.0
2018-06-11T00:48:07.790Z,998.0
2018-06-11T00:49:08.513Z,998.0
2018-06-11T00:50:09.227Z,998.0
2018-06-11T00:51:10.194Z,998.0
2018-06-11T00:52:10.905Z,998.0
2018-06-11T00:53:11.636Z,998.0
2018-06-11T00:54:12.363Z,998.0
2018-06-11T00:55:13.075Z,998.1
2018-06-11T00:56:13.811Z,998.0
2018-06-11T00:57:14.537Z,998.1
2018-06-11T00:58:15.271Z,998.1
2018-06-11T00:59:15.998Z,998.0
2018-06-11T01:00:16.716Z,998.1
2018-06-11T01:01:17.436Z,998.1
2018-06-11T01:02:18.175Z,998.0
2018-06-11T01:03:18.887Z,998.0
2018-06-11T01:04:19.607Z,998.0
2018-06-11T01:05:20.396Z,998.0
2018-06-11T01:06:21.374Z,998.0
2018-06-11T01:07:22.100Z,998.0
2018-06-11T01:08:22.824Z,997.9
2018-06-11T01:09:23.548Z,998.0
2018-06-11T01:10:24.261Z,997.9
2018-06-11T01:11:25.332Z,998.0
2018-06-11T01:12:26.057Z,997.9
2018-06-11T01:13:26.779Z,997.9
2018-06-11T01:14:27.523Z,997.9
2018-06-11T01:15:28.250Z,997.9
2018-06-11T01:16:29.334Z,997.9
2018-06-11T01:17:30.056Z,997.9
2018-06-11T01:18:30.781Z,997.9
2018-06-11T01:19:31.499Z,997.9
2018-06-11T01:20:32.466Z,997.9
2018-06-11T01:21:33.340Z,997.9
2018-06-11T01:22:34.056Z,997.9
2018-06-11T01:23:34.771Z,997.9
2018-06-11T01:24:35.485Z,998.0
2018-06-11T01:25:36.214Z,998.0
2018-06-11T01:26:36.992Z,998.0
2018-06-11T01:27:37.721Z,998.0
2018-06-11T01:28:38.697Z,998.0
2018-06-11T01:29:39.421Z,998.0
2018-06-11T01:30:40.150Z,998.0
2018-06-11T01:31:40.889Z,998.0
2018-06-11T01:32:41.616Z,998.0
2018-06-11T01:33:42.340Z,998.0
2018-06-11T01:34:43.066Z,998.0
2018-06-11T01:35:44.053Z,998.0
2018-06-11T01:36:44.779Z,998.0
2018-06-11T01:37:45.554Z,998.0
2018-06-11T01:38:46.280Z,998.0
2018-06-11T01:39:47.007Z,998.0
2018-06-11T01:40:47.721Z,998.0
2018-06-11T01:41:48.453Z,998.0
2018-06-11T01:42:49.522Z,998.1
2018-06-11T01:43:50.255Z,998.0
2018-06-11T01:44:50.988Z,998.1
2018-06-11T01:45:51.723Z,998.0
2018-06-11T01:46:52.458Z,998.0
2018-06-11T01:47:53.181Z,998.0
2018-06-11T01:48:54.299Z,998.0
2018-06-11T01:49:55.364Z,997.9
2018-06-11T01:50:56.083Z,998.0
2018-06-11T01:51:57.068Z,997.9
2018-06-11T01:52:57.797Z,997.9
2018-06-11T01:53:58.521Z,997.9
2018-06-11T01:54:59.241Z,997.9
2018-06-11T01:56:00.006Z,997.9
2018-06-11T01:57:00.947Z,998.0
2018-06-11T01:58:01.677Z,997.9
2018-06-11T01:59:02.651Z,998.0
2018-06-11T02:00:03.620Z,997.9
2018-06-11T02:01:04.330Z,997.9
2018-06-11T02:02:05.058Z,997.9
2018-06-11T02:03:05.782Z,997.9
2018-06-11T02:04:06.502Z,997.9
2018-06-11T02:05:07.381Z,997.9
2018-06-11T02:06:08.091Z,998.0
2018-06-11T02:07:08.826Z,998.0
2018-06-11T02:08:09.547Z,998.0
2018-06-11T02:09:10.263Z,998.0
2018-06-11T02:10:10.990Z,998.0
2018-06-11T02:11:11.965Z,998.0
2018-06-11T02:12:12.684Z,998.0
2018-06-11T02:13:13.440Z,997.9
2018-06-11T02:14:14.171Z,997.9
2018-06-11T02:15:14.911Z,997.9
2018-06-11T02:16:15.619Z,997.9
2018-06-11T02:17:16.368Z,997.9
2018-06-11T02:18:17.093Z,997.9
2018-06-11T02:19:18.073Z,998.0
2018-06-11T02:20:18.782Z,997.9
2018-06-11T02:21:19.522Z,998.0
2018-06-11T02:22:20.522Z,997.9
2018-06-11T02:23:21.238Z,998.0
2018-06-11T02:24:21.964Z,998.0
2018-06-11T02:25:22.679Z,997.9
2018-06-11T02:26:23.430Z,997.9
2018-06-11T02:27:24.246Z,998.0
2018-06-11T02:28:24.971Z,997.9
2018-06-11T02:29:25.716Z,997.9
2018-06-11T02:30:26.433Z,997.9
2018-06-11T02:31:27.170Z,997.9
2018-06-11T02:32:27.890Z,997.9
2018-06-11T02:33:28.609Z,997.9
2018-06-11T02:34:29.580Z,997.9
2018-06-11T02:35:30.306Z,997.9
2018-06-11T02:36:31.018Z,997.8
2018-06-11T02:37:31.755Z,997.9
2018-06-11T02:38:32.478Z,997.9
2018-06-11T02:39:33.196Z,997.8
2018-06-11T02:40:34.167Z,997.8
2018-06-11T02:41:35.141Z,997.9
2018-06-11T02:42:36.129Z,997.9
2018-06-11T02:43:36.896Z,997.9
2018-06-11T02:44:37.619Z,997.9
2018-06-11T02:45:38.455Z,997.9
2018-06-11T02:46:39.193Z,997.9
2018-06-11T02:47:40.419Z,997.9
2018-06-11T02:48:41.197Z,997.9
2018-06-11T02:49:42.410Z,997.9
2018-06-11T02:50:43.156Z,997.9
2018-06-11T02:51:44.088Z,997.9
2018-06-11T02:52:44.848Z,997.9
2018-06-11T02:53:45.779Z,997.9
2018-06-11T02:54:46.693Z,997.9
2018-06-11T02:55:47.544Z,997.9
2018-06-11T02:56:48.306Z,997.9
2018-06-11T02:57:49.475Z,997.9
2018-06-11T02:58:50.928Z,997.9
2018-06-11T02:59:51.706Z,997.9
2018-06-11T03:00:52.864Z,997.9
2018-06-11T03:01:53.595Z,997.9
2018-06-11T03:02:54.524Z,997.9
2018-06-11T03:03:55.327Z,997.9
2018-06-11T03:04:56.141Z,997.9
2018-06-11T03:05:56.892Z,997.8
2018-06-11T03:06:57.679Z,997.8
2018-06-11T03:07:58.820Z,997.8
2018-06-11T03:08:59.639Z,997.8
2018-06-11T03:10:00.879Z,997.8
2018-06-11T03:11:01.611Z,997.8
2018-06-11T03:12:02.893Z,997.8
2018-06-11T03:13:03.645Z,997.7
2018-06-11T03:14:04.460Z,997.8
2018-06-11T03:15:05.177Z,997.7
2018-06-11T03:16:05.911Z,997.7
2018-06-11T03:17:06.642Z,997.8
2018-06-11T03:18:07.375Z,997.8
2018-06-11T03:19:08.105Z,997.8
2018-06-11T03:20:08.831Z,997.7
2018-06-11T03:21:09.558Z,997.7
2018-06-11T03:22:10.291Z,997.7
2018-06-11T03:23:11.023Z,997.7
2018-06-11T03:24:11.748Z,997.7
2018-06-11T03:25:12.496Z,997.8
2018-06-11T03:26:13.218Z,997.7
2018-06-11T03:27:14.314Z,997.7
2018-06-11T03:28:15.041Z,997.7
2018-06-11T03:29:15.772Z,997.7
2018-06-11T03:30:16.496Z,997.7
2018-06-11T03:31:17.222Z,997.7
2018-06-11T03:32:18.212Z,997.7
2018-06-11T03:33:18.930Z,997.6
2018-06-11T03:34:19.650Z,997.6
2018-06-11T03:35:20.388Z,997.6
2018-06-11T03:36:21.111Z,997.6
2018-06-11T03:37:22.095Z,997.7
2018-06-11T03:38:22.822Z,997.6
2018-06-11T03:39:23.660Z,997.6
2018-06-11T03:40:24.389Z,997.6
2018-06-11T03:41:25.122Z,997.7
2018-06-11T03:42:25.888Z,997.6
2018-06-11T03:43:26.622Z,997.7
2018-06-11T03:44:27.415Z,997.7
2018-06-11T03:45:28.142Z,997.7
2018-06-11T03:46:28.873Z,997.7
2018-06-11T03:47:29.601Z,997.6
2018-06-11T03:48:30.337Z,997.6
2018-06-11T03:49:31.065Z,997.6
2018-06-11T03:50:31.790Z,997.6
2018-06-11T03:51:32.768Z,997.6
2018-06-11T03:52:33.498Z,997.6
2018-06-11T03:53:34.229Z,997.6
2018-06-11T03:54:34.967Z,997.6
2018-06-11T03:55:35.995Z,997.6
2018-06-11T03:56:36.751Z,997.7
2018-06-11T03:57:37.733Z,997.7
2018-06-11T03:58:38.456Z,997.6
2018-06-11T03:59:39.180Z,997.7
2018-06-11T04:00:39.937Z,997.7
2018-06-11T04:01:40.642Z,997.7
2018-06-11T04:02:41.401Z,997.7
2018-06-11T04:03:42.128Z,997.7
2018-06-11T04:04:42.857Z,997.7
2018-06-11T04:05:43.580Z,997.7
2018-06-11T04:06:44.669Z,997.7
2018-06-11T04:07:45.391Z,997.8
2018-06-11T04:08:46.127Z,997.8
2018-06-11T04:09:46.861Z,997.8
2018-06-11T04:10:47.851Z,997.8
2018-06-11T04:11:48.556Z,997.8
2018-06-11T04:12:49.278Z,997.8
2018-06-11T04:13:50.158Z,997.8
2018-06-11T04:14:50.901Z,997.9
2018-06-11T04:15:51.635Z,997.9
2018-06-11T04:16:52.374Z,997.9
2018-06-11T04:17:53.103Z,997.9
2018-06-11T04:18:53.869Z,997.9
2018-06-11T04:19:54.855Z,997.9
2018-06-11T04:20:55.587Z,997.9
2018-06-11T04:21:56.320Z,997.9
2018-06-11T04:22:57.055Z,997.9
2018-06-11T04:23:57.792Z,998.0
2018-06-11T04:24:58.520Z,997.9
2018-06-11T04:25:59.263Z,997.9
2018-06-11T04:26:59.994Z,997.9
2018-06-11T04:28:00.727Z,997.9
2018-06-11T04:29:01.464Z,997.9
2018-06-11T04:30:02.188Z,997.8
2018-06-11T04:31:02.923Z,997.9
2018-06-11T04:32:03.796Z,997.9
2018-06-11T04:33:04.539Z,997.9
2018-06-11T04:34:05.271Z,998.0
2018-06-11T04:35:05.992Z,998.0
2018-06-11T04:36:06.722Z,998.0
2018-06-11T04:37:07.842Z,998.0
2018-06-11T04:38:08.573Z,998.1
2018-06-11T04:39:09.548Z,998.1
2018-06-11T04:40:10.273Z,998.1
2018-06-11T04:41:11.005Z,998.1
2018-06-11T04:42:11.737Z,998.1
2018-06-11T04:43:12.475Z,998.1
2018-06-11T04:44:13.215Z,998.1
2018-06-11T04:45:13.979Z,998.1
2018-06-11T04:46:14.681Z,998.2
2018-06-11T04:47:15.415Z,998.1
2018-06-11T04:48:16.133Z,998.1
2018-06-11T04:49:16.862Z,998.1
2018-06-11T04:50:17.589Z,998.2
2018-06-11T04:51:18.321Z,998.2
2018-06-11T04:52:19.056Z,998.1
2018-06-11T04:53:19.784Z,998.2
2018-06-11T04:54:20.502Z,998.2
2018-06-11T04:55:21.236Z,998.2
2018-06-11T04:56:22.216Z,998.3
2018-06-11T04:57:22.951Z,998.3
2018-06-11T04:58:23.681Z,998.3
2018-06-11T04:59:24.431Z,998.3
2018-06-11T05:00:25.152Z,998.3
2018-06-11T05:01:25.892Z,998.3
2018-06-11T05:02:26.636Z,998.4
2018-06-11T05:03:27.357Z,998.3
2018-06-11T05:04:28.085Z,998.3
2018-06-11T05:05:28.812Z,998.4
2018-06-11T05:06:29.536Z,998.4
2018-06-11T05:07:30.261Z,998.4
2018-06-11T05:08:30.988Z,998.4
2018-06-11T05:09:31.714Z,998.4
2018-06-11T05:10:32.435Z,998.4
2018-06-11T05:11:33.160Z,998.5
2018-06-11T05:12:33.898Z,998.4
2018-06-11T05:13:34.628Z,998.4
2018-06-11T05:14:35.378Z,998.4
2018-06-11T05:15:36.116Z,998.4
2018-06-11T05:16:36.850Z,998.4
2018-06-11T05:17:37.576Z,998.4
2018-06-11T05:18:38.567Z,998.4
2018-06-11T05:19:39.287Z,998.3
2018-06-11T05:20:40.020Z,998.4
2018-06-11T05:21:40.749Z,998.4
2018-06-11T05:22:41.491Z,998.4
2018-06-11T05:23:42.216Z,998.3
2018-06-11T05:24:42.943Z,998.4
2018-06-11T05:25:43.820Z,998.4
2018-06-11T05:26:44.797Z,998.4
2018-06-11T05:27:45.535Z,998.4
2018-06-11T05:28:46.325Z,998.4
2018-06-11T05:29:46.994Z,998.4
2018-06-11T05:30:48.130Z,998.4
2018-06-11T05:31:48.860Z,998.4
2018-06-11T05:32:49.592Z,998.4
2018-06-11T05:33:50.322Z,998.4
2018-06-11T05:34:51.102Z,998.4
2018-06-11T05:35:51.869Z,998.4
2018-06-11T05:36:52.654Z,998.3
2018-06-11T05:37:53.814Z,998.3
2018-06-11T05:38:54.790Z,998.3
2018-06-11T05:39:55.514Z,998.4
2018-06-11T05:40:56.240Z,998.3
2018-06-11T05:41:57.215Z,998.3
2018-06-11T05:42:57.951Z,998.3
2018-06-11T05:43:58.680Z,998.3
2018-06-11T05:44:59.413Z,998.3
2018-06-11T05:46:00.133Z,998.3
2018-06-11T05:47:00.864Z,998.3
2018-06-11T05:48:01.629Z,998.3
2018-06-11T05:49:02.339Z,998.2
2018-06-11T05:50:03.064Z,998.2
2018-06-11T05:51:03.800Z,998.3
2018-06-11T05:52:04.523Z,998.3
2018-06-11T05:53:05.259Z,998.3
2018-06-11T05:54:05.947Z,0.0
2018-06-11T05:55:06.725Z,0.0
2018-06-11T05:56:07.405Z,0.0
2018-06-11T05:57:08.088Z,0.0
2018-06-11T05:58:08.771Z,0.0
2018-06-11T05:59:09.452Z,0.0
2018-06-11T06:00:10.127Z,0.0
2018-06-11T06:01:10.914Z,0.0
2018-06-11T06:02:11.594Z,0.0
2018-06-11T06:03:12.524Z,0.0
2018-06-11T06:04:13.215Z,0.0
2018-06-11T06:05:14.141Z,0.0
2018-06-11T06:06:15.181Z,0.0
2018-06-11T06:07:15.870Z,0.0
2018-06-11T06:08:16.549Z,0.0
2018-06-11T06:09:17.232Z,0.0
2018-06-11T06:10:17.928Z,0.0
2018-06-11T06:11:18.652Z,998.4
2018-06-11T06:12:19.387Z,998.4
2018-06-11T06:13:20.113Z,998.3
2018-06-11T06:14:21.005Z,998.3
2018-06-11T06:15:21.734Z,998.3
2018-06-11T06:16:22.469Z,998.3
2018-06-11T06:17:23.199Z,998.3
2018-06-11T06:18:24.180Z,998.3
2018-06-11T06:19:25.169Z,998.3
2018-06-11T06:20:25.912Z,998.3
2018-06-11T06:21:26.656Z,998.3
2018-06-11T06:22:27.633Z,998.3
2018-06-11T06:23:28.368Z,998.3
2018-06-11T06:24:29.146Z,998.3
2018-06-11T06:25:29.873Z,998.3
2018-06-11T06:26:30.602Z,998.3
2018-06-11T06:27:31.341Z,998.4
2018-06-11T06:28:32.066Z,998.4
2018-06-11T06:29:32.799Z,998.4
2018-06-11T06:30:33.520Z,998.4
2018-06-11T06:31:34.250Z,998.4
2018-06-11T06:32:34.944Z,0.0
2018-06-11T06:33:35.618Z,0.0
2018-06-11T06:34:36.366Z,0.0
2018-06-11T06:35:37.030Z,998.5
2018-06-11T06:36:37.999Z,998.5
2018-06-11T06:37:38.724Z,998.5
2018-06-11T06:38:39.456Z,998.5
2018-06-11T06:39:40.211Z,998.5
2018-06-11T06:40:40.915Z,998.4
2018-06-11T06:41:41.649Z,998.4
2018-06-11T06:42:42.382Z,998.4
2018-06-11T06:43:43.109Z,998.5
2018-06-11T06:44:43.994Z,998.5
2018-06-11T06:45:44.729Z,998.5
2018-06-11T06:46:45.462Z,998.5
2018-06-11T06:47:46.183Z,998.5
2018-06-11T06:48:46.925Z,998.6
2018-06-11T06:49:47.708Z,998.5
2018-06-11T06:50:48.450Z,998.5
2018-06-11T06:51:49.178Z,998.5
2018-06-11T06:52:49.920Z,998.5
2018-06-11T06:53:50.671Z,998.5
2018-06-11T06:54:51.400Z,998.5
2018-06-11T06:55:52.480Z,998.5
2018-06-11T06:56:53.207Z,998.5
2018-06-11T06:57:53.935Z,998.6
2018-06-11T06:58:54.653Z,998.6
2018-06-11T06:59:55.380Z,998.6
2018-06-11T07:00:56.201Z,998.6
2018-06-11T07:01:56.890Z,0.0
2018-06-11T07:02:57.571Z,0.0
2018-06-11T07:03:58.301Z,998.6
2018-06-11T07:04:59.026Z,998.6
2018-06-11T07:05:59.752Z,998.6
2018-06-11T07:07:00.730Z,998.6
2018-06-11T07:08:01.517Z,998.7
2018-06-11T07:09:02.186Z,998.7
2018-06-11T07:10:02.920Z,998.7
2018-06-11T07:11:03.645Z,998.7
2018-06-11T07:12:04.381Z,998.7
2018-06-11T07:13:05.167Z,998.7
2018-06-11T07:14:06.030Z,998.7
2018-06-11T07:15:06.743Z,998.8
2018-06-11T07:16:07.755Z,998.7
2018-06-11T07:17:08.489Z,998.7
2018-06-11T07:18:09.226Z,998.7
2018-06-11T07:19:09.950Z,998.7
2018-06-11T07:20:10.721Z,998.7
2018-06-11T07:21:11.421Z,998.8
2018-06-11T07:22:12.145Z,998.7
2018-06-11T07:23:13.142Z,998.7
2018-06-11T07:24:13.871Z,998.7
2018-06-11T07:25:14.618Z,998.8
2018-06-11T07:26:15.344Z,998.7
2018-06-11T07:27:16.079Z,998.7
2018-06-11T07:28:16.904Z,998.7
2018-06-11T07:29:17.627Z,998.7
2018-06-11T07:30:18.366Z,998.7
2018-06-11T07:31:19.144Z,998.8
2018-06-11T07:32:19.826Z,998.8
2018-06-11T07:33:20.547Z,998.8
2018-06-11T07:34:21.272Z,998.8
2018-06-11T07:35:22.000Z,998.8
2018-06-11T07:36:22.741Z,998.8
2018-06-11T07:37:23.473Z,998.9
2018-06-11T07:38:24.203Z,998.9
2018-06-11T07:39:24.935Z,998.9
2018-06-11T07:40:25.933Z,998.9
2018-06-11T07:41:26.668Z,998.9
2018-06-11T07:42:27.651Z,998.9
2018-06-11T07:43:28.389Z,998.9
2018-06-11T07:44:29.128Z,998.9
2018-06-11T07:45:29.853Z,998.9
2018-06-11T07:46:30.579Z,999.0
2018-06-11T07:47:31.311Z,999.0
2018-06-11T07:48:31.987Z,0.0
2018-06-11T07:49:32.925Z,0.0
2018-06-11T07:50:33.659Z,998.9
2018-06-11T07:51:34.447Z,998.9
2018-06-11T07:52:35.182Z,999.0
2018-06-11T07:53:36.118Z,0.0
2018-06-11T07:54:36.849Z,999.0
2018-06-11T07:55:37.596Z,999.0
2018-06-11T07:56:38.667Z,999.0
2018-06-11T07:57:39.406Z,999.0
2018-06-11T07:58:40.143Z,999.0
2018-06-11T07:59:40.870Z,999.0
2018-06-11T08:00:41.609Z,998.9
2018-06-11T08:01:42.397Z,998.9
2018-06-11T08:02:43.148Z,998.9
2018-06-11T08:03:43.896Z,998.9
2018-06-11T08:04:44.621Z,998.9
2018-06-11T08:05:45.354Z,998.9
2018-06-11T08:06:46.029Z,0.0
2018-06-11T08:07:46.970Z,0.0
2018-06-11T08:08:47.650Z,0.0
2018-06-11T08:09:48.330Z,0.0
2018-06-11T08:10:49.018Z,0.0
2018-06-11T08:11:49.700Z,0.0
2018-06-11T08:12:50.749Z,0.0
2018-06-11T08:13:51.485Z,998.8
2018-06-11T08:14:52.202Z,998.8
2018-06-11T08:15:52.932Z,998.9
2018-06-11T08:16:53.666Z,998.8
2018-06-11T08:17:54.407Z,998.8
2018-06-11T08:18:55.133Z,998.8
2018-06-11T08:19:55.865Z,998.8
2018-06-11T08:20:56.600Z,998.8
2018-06-11T08:21:57.580Z,998.8
2018-06-11T08:22:58.305Z,998.8
2018-06-11T08:23:59.040Z,998.9
2018-06-11T08:24:59.761Z,998.9
2018-06-11T08:26:00.748Z,998.8
2018-06-11T08:27:01.487Z,998.9
2018-06-11T08:28:02.218Z,998.9
2018-06-11T08:29:03.194Z,998.8
2018-06-11T08:30:03.943Z,998.9
2018-06-11T08:31:04.667Z,998.9
2018-06-11T08:32:05.397Z,998.9
2018-06-11T08:33:06.119Z,998.8
2018-06-11T08:34:06.854Z,998.9
2018-06-11T08:35:07.584Z,998.9
2018-06-11T08:36:08.310Z,998.8
2018-06-11T08:37:09.050Z,998.8
2018-06-11T08:38:09.782Z,998.8
2018-06-11T08:39:10.510Z,998.8
2018-06-11T08:40:11.239Z,998.8
2018-06-11T08:41:11.970Z,998.8
2018-06-11T08:42:12.700Z,998.8
2018-06-11T08:43:13.470Z,998.8
2018-06-11T08:44:14.186Z,998.8
2018-06-11T08:45:14.911Z,998.8
2018-06-11T08:46:15.644Z,998.9
2018-06-11T08:47:16.618Z,998.8
2018-06-11T08:48:17.380Z,998.9
2018-06-11T08:49:18.178Z,998.9
2018-06-11T08:50:19.157Z,998.8
2018-06-11T08:51:20.065Z,998.8
2018-06-11T08:52:20.818Z,998.8
2018-06-11T08:53:21.826Z,998.8
2018-06-11T08:54:22.650Z,998.8
2018-06-11T08:55:23.384Z,998.8
2018-06-11T08:56:24.116Z,998.8
2018-06-11T08:57:24.856Z,998.8
2018-06-11T08:58:25.586Z,998.8
2018-06-11T08:59:26.324Z,998.8
2018-06-11T09:00:27.057Z,998.8
2018-06-11T09:01:27.779Z,998.8
2018-06-11T09:02:28.534Z,998.8
2018-06-11T09:03:29.266Z,998.8
2018-06-11T09:04:30.007Z,998.8
2018-06-11T09:05:30.729Z,998.8
2018-06-11T09:06:31.466Z,998.7
2018-06-11T09:07:32.197Z,998.8
2018-06-11T09:08:32.923Z,998.7
2018-06-11T09:09:33.665Z,998.7
2018-06-11T09:10:34.394Z,998.8
2018-06-11T09:11:35.135Z,998.7
2018-06-11T09:12:35.909Z,998.7
2018-06-11T09:13:36.609Z,998.7
2018-06-11T09:14:37.336Z,998.7
2018-06-11T09:15:38.324Z,998.7
2018-06-11T09:16:39.057Z,998.7
2018-06-11T09:17:39.776Z,998.6
2018-06-11T09:18:40.904Z,998.6
2018-06-11T09:19:41.633Z,998.6
2018-06-11T09:20:42.368Z,998.6
2018-06-11T09:21:43.098Z,998.6
2018-06-11T09:22:43.828Z,998.7
2018-06-11T09:23:44.554Z,998.6
2018-06-11T09:24:45.293Z,998.7
2018-06-11T09:25:46.017Z,998.7
2018-06-11T09:26:46.748Z,998.6
2018-06-11T09:27:47.730Z,998.6
2018-06-11T09:28:48.477Z,998.7
2018-06-11T09:29:49.208Z,998.7
2018-06-11T09:30:49.951Z,998.6
2018-06-11T09:31:50.668Z,998.7
2018-06-11T09:32:51.654Z,998.7
2018-06-11T09:33:52.721Z,998.7
2018-06-11T09:34:53.801Z,998.7
2018-06-11T09:35:54.543Z,998.7
2018-06-11T09:36:55.277Z,998.6
2018-06-11T09:37:56.010Z,998.6
2018-06-11T09:38:56.749Z,998.6
2018-06-11T09:39:57.503Z,998.6
2018-06-11T09:40:58.306Z,998.7
2018-06-11T09:41:59.032Z,998.6
2018-06-11T09:42:59.775Z,998.6
2018-06-11T09:45:01.399Z,998.6
2018-06-11T09:46:02.547Z,998.6
2018-06-11T09:47:03.533Z,998.7
2018-06-11T09:48:04.259Z,998.7
2018-06-11T09:49:05.339Z,998.6
2018-06-11T09:50:06.254Z,998.6
2018-06-11T09:51:07.381Z,998.7
2018-06-11T09:52:08.323Z,998.7
2018-06-11T09:53:09.203Z,998.7
2018-06-11T09:54:09.952Z,998.6
2018-06-11T09:55:10.694Z,998.7
2018-06-11T09:56:11.678Z,998.7
2018-06-11T09:57:13.068Z,998.7
2018-06-11T09:58:13.805Z,998.7
2018-06-11T09:59:14.536Z,998.7
2018-06-11T10:00:15.271Z,998.7
2018-06-11T10:01:16.006Z,998.7
2018-06-11T10:02:17.176Z,998.7
2018-06-11T10:03:17.908Z,998.8
2018-06-11T10:04:18.643Z,998.8
2018-06-11T10:05:19.378Z,998.8
2018-06-11T10:06:20.112Z,998.8
2018-06-11T10:07:20.948Z,998.8
2018-06-11T10:08:21.674Z,998.7
2018-06-11T10:09:22.438Z,998.7
2018-06-11T10:10:23.171Z,998.7
2018-06-11T10:11:23.905Z,998.7
2018-06-11T10:12:24.718Z,998.7
2018-06-11T10:13:25.729Z,998.7
2018-06-11T10:14:26.471Z,998.7
2018-06-11T10:15:27.223Z,998.6
2018-06-11T10:16:27.963Z,998.6
2018-06-11T10:17:28.962Z,998.5
2018-06-11T10:18:30.041Z,998.6
2018-06-11T10:19:30.780Z,998.5
2018-06-11T10:20:31.522Z,998.6
2018-06-11T10:21:32.254Z,998.6
2018-06-11T10:22:32.987Z,998.6
2018-06-11T10:23:33.791Z,998.6
2018-06-11T10:24:34.567Z,998.6
2018-06-11T10:25:35.333Z,998.6
2018-06-11T10:26:36.065Z,998.6
2018-06-11T10:27:36.824Z,998.5
2018-06-11T10:28:37.549Z,998.6
2018-06-11T10:29:38.333Z,998.5
2018-06-11T10:30:39.064Z,998.6
2018-06-11T10:31:39.799Z,998.5
2018-06-11T10:32:40.522Z,998.5
2018-06-11T10:33:41.254Z,998.5
2018-06-11T10:34:42.041Z,998.5
2018-06-11T10:35:42.782Z,998.4
2018-06-11T10:36:43.527Z,998.4
2018-06-11T10:37:44.271Z,998.4
2018-06-11T10:38:45.082Z,998.4
2018-06-11T10:39:46.187Z,998.5
2018-06-11T10:40:46.921Z,998.5
2018-06-11T10:41:47.662Z,998.4
2018-06-11T10:42:48.393Z,998.4
2018-06-11T10:43:49.132Z,998.4
2018-06-11T10:44:49.863Z,998.4
2018-06-11T10:45:50.587Z,998.5
2018-06-11T10:46:51.574Z,998.4
2018-06-11T10:47:52.308Z,998.4
2018-06-11T10:48:53.044Z,998.5
2018-06-11T10:49:53.775Z,998.5
2018-06-11T10:50:54.508Z,998.5
2018-06-11T10:51:55.340Z,998.5
2018-06-11T10:52:56.334Z,998.5
2018-06-11T10:53:57.065Z,998.5
2018-06-11T10:54:57.805Z,998.5
2018-06-11T10:55:58.550Z,998.5
2018-06-11T10:56:59.293Z,998.5
2018-06-11T10:58:00.218Z,998.5
2018-06-11T10:59:00.905Z,998.5
2018-06-11T11:00:01.887Z,998.5
2018-06-11T11:01:02.612Z,998.5
2018-06-11T11:02:03.348Z,998.5
2018-06-11T11:03:04.083Z,998.5
2018-06-11T11:04:04.821Z,998.5
2018-06-11T11:05:05.604Z,998.5
2018-06-11T11:06:06.351Z,998.5
2018-06-11T11:07:07.090Z,998.4
2018-06-11T11:08:07.814Z,998.4
2018-06-11T11:09:08.552Z,998.5
2018-06-11T11:10:09.288Z,998.5
2018-06-11T11:11:10.031Z,998.4
2018-06-11T11:12:10.755Z,998.4
2018-06-11T11:13:11.537Z,998.4
2018-06-11T11:14:12.231Z,998.4
2018-06-11T11:15:12.977Z,998.4
2018-06-11T11:16:13.720Z,998.4
2018-06-11T11:17:14.459Z,998.3
2018-06-11T11:18:15.205Z,998.3
2018-06-11T11:19:15.950Z,998.3
2018-06-11T11:20:16.691Z,998.3
2018-06-11T11:21:17.438Z,998.3
2018-06-11T11:22:18.178Z,998.3
2018-06-11T11:23:19.571Z,998.3
2018-06-11T11:24:20.479Z,998.3
2018-06-11T11:25:21.224Z,998.3
2018-06-11T11:26:21.959Z,998.2
2018-06-11T11:27:22.708Z,998.2
2018-06-11T11:28:23.501Z,998.2
2018-06-11T11:29:24.235Z,998.2
2018-06-11T11:30:24.977Z,998.2
2018-06-11T11:31:25.710Z,998.2
2018-06-11T11:32:26.462Z,998.2
2018-06-11T11:33:27.235Z,998.2
2018-06-11T11:34:27.974Z,998.3
2018-06-11T11:35:28.722Z,998.2
2018-06-11T11:36:29.702Z,998.3
2018-06-11T11:37:30.446Z,998.2
2018-06-11T11:38:31.228Z,998.2
2018-06-11T11:39:31.978Z,998.2
2018-06-11T11:40:32.725Z,998.2
2018-06-11T11:41:33.460Z,998.2
2018-06-11T11:42:34.448Z,998.1
2018-06-11T11:43:35.180Z,998.2
2018-06-11T11:44:35.932Z,998.1
2018-06-11T11:45:36.668Z,998.1
2018-06-11T11:46:37.415Z,998.1
2018-06-11T11:47:38.412Z,998.0
2018-06-11T11:48:39.135Z,998.0
2018-06-11T11:49:39.875Z,998.0
2018-06-11T11:50:40.667Z,997.9
2018-06-11T11:51:41.405Z,997.9
2018-06-11T11:52:42.388Z,997.9
2018-06-11T11:53:43.112Z,997.8
2018-06-11T11:54:43.856Z,997.9
2018-06-11T11:55:44.600Z,997.8
2018-06-11T11:56:45.335Z,997.8
2018-06-11T11:57:46.080Z,997.8
2018-06-11T11:58:46.817Z,997.8
2018-06-11T11:59:47.556Z,997.7
2018-06-11T12:00:48.302Z,997.7
2018-06-11T12:01:49.025Z,997.7
2018-06-11T12:02:49.765Z,997.7
2018-06-11T12:03:50.516Z,997.7
2018-06-11T12:04:51.254Z,997.6
2018-06-11T12:05:51.994Z,997.6
2018-06-11T12:06:52.734Z,997.7
2018-06-11T12:07:53.718Z,997.6
2018-06-11T12:08:54.466Z,997.6
2018-06-11T12:09:55.207Z,997.6
2018-06-11T12:10:55.953Z,997.6
2018-06-11T12:11:56.684Z,997.5
2018-06-11T12:12:57.426Z,997.5
2018-06-11T12:13:58.161Z,997.5
2018-06-11T12:14:59.145Z,997.5
2018-06-11T12:15:59.893Z,997.5
2018-06-11T12:17:00.616Z,997.5
2018-06-11T12:18:01.614Z,997.4
2018-06-11T12:19:02.395Z,997.4
2018-06-11T12:20:03.127Z,997.4
2018-06-11T12:21:03.867Z,997.4
2018-06-11T12:22:04.602Z,997.4
2018-06-11T12:23:05.339Z,997.4
2018-06-11T12:24:06.084Z,997.5
2018-06-11T12:25:06.813Z,997.5
2018-06-11T12:26:07.539Z,997.5
2018-06-11T12:27:08.264Z,997.5
2018-06-11T12:28:09.006Z,997.5
2018-06-11T12:29:09.759Z,997.5
2018-06-11T12:30:10.510Z,997.5
2018-06-11T12:31:11.389Z,997.4
2018-06-11T12:32:12.127Z,997.4
2018-06-11T12:33:12.882Z,997.3
2018-06-11T12:34:13.622Z,997.3
2018-06-11T12:35:14.362Z,997.3
2018-06-11T12:36:15.244Z,997.3
2018-06-11T12:37:16.222Z,997.2
2018-06-11T12:38:16.971Z,997.3
2018-06-11T12:39:17.715Z,997.2
2018-06-11T12:40:18.454Z,997.2
2018-06-11T12:41:19.195Z,997.2
2018-06-11T12:42:20.331Z,997.2
2018-06-11T12:43:21.088Z,997.2
2018-06-11T12:44:21.826Z,997.2
2018-06-11T12:45:22.561Z,997.2
2018-06-11T12:46:23.289Z,997.2
2018-06-11T12:47:24.175Z,997.2
2018-06-11T12:48:24.925Z,997.2
2018-06-11T12:49:25.663Z,997.1
2018-06-11T12:50:26.408Z,997.1
2018-06-11T12:51:27.160Z,997.2
2018-06-11T12:52:27.895Z,997.1
2018-06-11T12:53:28.625Z,997.1
2018-06-11T12:54:29.614Z,997.1
2018-06-11T12:55:30.359Z,997.1
2018-06-11T12:56:31.098Z,997.2
2018-06-11T12:57:31.828Z,997.1
2018-06-11T12:58:32.618Z,997.1
2018-06-11T12:59:33.361Z,997.1
2018-06-11T13:00:34.109Z,997.0
2018-06-11T13:01:34.876Z,997.0
2018-06-11T13:02:35.574Z,997.1
2018-06-11T13:03:36.313Z,997.0
2018-06-11T13:04:37.049Z,997.0
2018-06-11T13:05:37.775Z,997.0